createdAt,value
2018-05-27T00:00:04.158Z,97218.89
2018-05-27T00:04:57.451Z,97210.24
2018-05-27T00:09:50.789Z,97204.27
2018-05-27T00:14:44.077Z,97187.05
2018-05-27T00:19:37.349Z,97173.09
2018-05-27T00:24:30.651Z,97173.64
2018-05-27T00:29:23.940Z,97176.07
2018-05-27T00:34:17.223Z,97173.81
2018-05-27T00:39:10.512Z,97170.91
2018-05-27T00:44:04.580Z,97163.93
2018-05-27T00:48:57.862Z,97169.46
2018-05-27T00:53:59.849Z,97172.30
2018-05-27T00:58:53.140Z,97163.84
2018-05-27T01:03:46.433Z,97168.45
2018-05-27T01:08:40.478Z,97175.05
2018-05-27T01:13:33.772Z,97170.64
2018-05-27T01:18:27.138Z,97162.69
2018-05-27T01:23:20.469Z,97162.56
2018-05-27T01:28:13.765Z,97158.02
2018-05-27T01:33:07.189Z,97158.16
2018-05-27T01:38:00.457Z,97147.88
2018-05-27T01:42:53.741Z,97148.75
2018-05-27T01:47:47.025Z,97138.11
2018-05-27T01:52:40.366Z,97131.42
2018-05-27T01:57:34.395Z,97126.52
2018-05-27T02:02:27.690Z,97122.95
2018-05-27T02:07:21.724Z,97108.34
2018-05-27T02:12:15.014Z,97120.61
2018-05-27T02:17:08.303Z,97124.34
2018-05-27T02:22:01.608Z,97114.30
2018-05-27T02:26:54.930Z,97112.31
2018-05-27T02:31:48.229Z,97103.39
2018-05-27T02:36:41.529Z,97101.12
2018-05-27T02:41:34.841Z,97097.80
2018-05-27T02:46:28.869Z,97100.09
2018-05-27T02:51:22.160Z,97097.78
2018-05-27T02:56:15.478Z,97093.83
2018-05-27T03:01:09.559Z,97089.75
2018-05-27T03:06:02.849Z,97075.11
2018-05-27T03:10:56.135Z,97072.89
2018-05-27T03:15:50.189Z,97069.16
2018-05-27T03:20:43.495Z,97075.66
2018-05-27T03:25:36.768Z,97070.36
2018-05-27T03:30:30.069Z,97077.19
2018-05-27T03:35:24.132Z,97086.23
2018-05-27T03:40:17.413Z,97088.63
2018-05-27T03:45:10.690Z,97082.34
2018-05-27T03:50:03.973Z,97089.63
2018-05-27T03:54:57.253Z,97090.64
2018-05-27T03:59:50.542Z,97073.80
2018-05-27T04:05:02.967Z,97081.32
2018-05-27T04:09:57.013Z,97084.34
2018-05-27T04:14:50.317Z,97080.56
2018-05-27T04:19:43.614Z,97082.20
2018-05-27T04:24:37.681Z,97080.11
2018-05-27T04:29:30.957Z,97088.20
2018-05-27T04:34:24.259Z,97081.72
2018-05-27T04:39:17.561Z,97080.11
2018-05-27T04:44:10.854Z,97070.78
2018-05-27T04:49:04.142Z,97083.53
2018-05-27T04:53:57.437Z,97081.41
2018-05-27T04:58:50.733Z,97077.27
2018-05-27T05:03:44.024Z,97086.01
2018-05-27T05:08:38.066Z,97082.91
2018-05-27T05:13:31.357Z,97083.94
2018-05-27T05:18:24.650Z,97091.27
2018-05-27T05:23:17.952Z,97084.60
2018-05-27T05:28:11.237Z,97082.08
2018-05-27T05:33:05.298Z,97084.61
2018-05-27T05:37:58.580Z,97084.27
2018-05-27T05:42:51.870Z,97084.80
2018-05-27T05:47:45.145Z,97095.47
2018-05-27T05:52:38.477Z,97106.09
2018-05-27T05:57:31.770Z,97121.45
2018-05-27T06:02:25.053Z,97128.66
2018-05-27T06:07:18.335Z,97130.95
2018-05-27T06:12:11.625Z,97136.63
2018-05-27T06:17:04.897Z,97132.38
2018-05-27T06:21:58.181Z,97134.79
2018-05-27T06:26:51.474Z,97148.20
2018-05-27T06:31:44.757Z,97144.19
2018-05-27T06:36:38.817Z,97153.18
2018-05-27T06:41:32.101Z,97150.06
2018-05-27T06:46:25.372Z,97158.97
2018-05-27T06:51:18.712Z,97163.69
2018-05-27T06:56:11.950Z,97163.89
2018-05-27T07:01:05.264Z,97168.55
2018-05-27T07:05:58.549Z,97170.95
2018-05-27T07:10:51.864Z,97184.62
2018-05-27T07:15:45.165Z,97183.21
2018-05-27T07:20:39.238Z,97189.17
2018-05-27T07:25:32.526Z,97194.78
2018-05-27T07:30:25.813Z,97204.37
2018-05-27T07:35:19.101Z,97200.72
2018-05-27T07:40:12.389Z,97203.25
2018-05-27T07:45:05.701Z,97204.48
2018-05-27T07:49:59.000Z,97209.26
2018-05-27T07:54:52.294Z,97208.86
2018-05-27T07:59:45.578Z,97209.79
2018-05-27T08:04:38.909Z,97208.05
2018-05-27T08:09:32.208Z,97206.39
2018-05-27T08:14:25.511Z,97205.72
2018-05-27T08:19:18.798Z,97211.27
2018-05-27T08:24:12.860Z,97213.70
2018-05-27T08:29:06.148Z,97213.84
2018-05-27T08:33:59.435Z,97217.98
2018-05-27T08:38:52.793Z,97216.77
2018-05-27T08:43:46.088Z,97220.17
2018-05-27T08:48:39.369Z,97218.67
2018-05-27T08:53:32.657Z,97221.60
2018-05-27T08:58:26.030Z,97219.02
2018-05-27T09:03:19.317Z,97228.59
2018-05-27T09:08:13.375Z,97224.59
2018-05-27T09:13:06.663Z,97223.92
2018-05-27T09:17:59.973Z,97217.19
2018-05-27T09:22:54.027Z,97218.74
2018-05-27T09:27:47.310Z,97211.94
2018-05-27T09:32:41.361Z,97211.33
2018-05-27T09:37:34.655Z,97210.76
2018-05-27T09:42:27.953Z,97203.06
2018-05-27T09:47:21.240Z,97210.64
2018-05-27T09:52:14.534Z,97209.05
2018-05-27T09:57:07.825Z,97205.74
2018-05-27T10:02:01.887Z,97201.55
2018-05-27T10:06:55.169Z,97195.73
2018-05-27T10:11:48.495Z,97188.86
2018-05-27T10:16:41.755Z,97181.56
2018-05-27T10:21:35.822Z,97175.91
2018-05-27T10:26:29.124Z,97177.67
2018-05-27T10:31:23.184Z,97175.05
2018-05-27T10:36:16.492Z,97168.36
2018-05-27T10:41:10.552Z,97146.93
2018-05-27T10:46:03.829Z,97141.02
2018-05-27T10:50:57.121Z,97131.56
2018-05-27T10:55:50.462Z,97122.72
2018-05-27T11:00:43.749Z,97116.64
2018-05-27T11:05:37.087Z,97116.88
2018-05-27T11:10:30.341Z,97120.28
2018-05-27T11:15:23.641Z,97124.41
2018-05-27T11:20:17.705Z,97122.32
2018-05-27T11:25:10.996Z,97117.40
2018-05-27T11:30:04.293Z,97111.02
2018-05-27T11:34:58.342Z,97103.72
2018-05-27T11:39:51.626Z,97085.20
2018-05-27T11:44:44.921Z,97073.72
2018-05-27T11:49:38.195Z,97069.06
2018-05-27T11:54:31.482Z,97056.75
2018-05-27T11:59:24.793Z,97050.69
2018-05-27T12:04:18.087Z,97042.86
2018-05-27T12:09:11.519Z,97042.32
2018-05-27T12:14:04.679Z,97044.59
2018-05-27T12:18:57.989Z,97039.52
2018-05-27T12:23:52.083Z,97032.61
2018-05-27T12:28:46.136Z,97026.67
2018-05-27T12:33:39.498Z,97017.67
2018-05-27T12:38:32.801Z,97019.19
2018-05-27T12:43:26.137Z,97011.52
2018-05-27T12:48:19.432Z,97002.61
2018-05-27T12:53:12.771Z,97003.12
2018-05-27T12:58:06.824Z,97013.47
2018-05-27T13:03:00.109Z,97019.00
2018-05-27T13:07:53.409Z,97019.14
2018-05-27T13:12:47.475Z,97019.06
2018-05-27T13:17:40.793Z,97012.02
2018-05-27T13:22:34.878Z,97005.19
2018-05-27T13:27:28.999Z,97001.80
2018-05-27T13:32:22.305Z,96991.76
2018-05-27T13:37:15.597Z,96980.06
2018-05-27T13:42:08.911Z,96987.20
2018-05-27T13:47:03.807Z,96978.14
2018-05-27T13:51:57.134Z,96972.18
2018-05-27T13:56:50.427Z,96970.66
2018-05-27T14:01:43.713Z,96966.73
2018-05-27T14:06:37.022Z,96960.73
2018-05-27T14:11:30.347Z,96961.48
2018-05-27T14:16:23.636Z,96977.97
2018-05-27T14:21:16.944Z,96981.66
2018-05-27T14:26:10.238Z,96971.91
2018-05-27T14:31:03.574Z,96965.18
2018-05-27T14:35:56.868Z,96967.32
2018-05-27T14:40:50.178Z,96956.67
2018-05-27T14:45:43.461Z,96939.13
2018-05-27T14:50:37.536Z,96937.64
2018-05-27T14:55:30.821Z,96929.36
2018-05-27T15:00:24.121Z,96917.08
2018-05-27T15:05:17.456Z,96906.86
2018-05-27T15:10:10.745Z,96900.92
2018-05-27T15:15:04.050Z,96890.95
2018-05-27T15:19:57.364Z,96874.00
2018-05-27T15:24:50.659Z,96865.49
2018-05-27T15:29:43.935Z,96875.92
2018-05-27T15:34:37.225Z,96870.11
2018-05-27T15:39:30.517Z,96867.09
2018-05-27T15:44:23.826Z,96867.56
2018-05-27T15:49:17.122Z,96867.20
2018-05-27T15:54:10.429Z,96869.20
2018-05-27T15:59:03.706Z,96869.86
2018-05-27T16:03:57.022Z,96866.59
2018-05-27T16:08:51.106Z,96869.18
2018-05-27T16:13:44.418Z,96870.71
2018-05-27T16:18:37.703Z,96861.37
2018-05-27T16:23:31.012Z,96866.70
2018-05-27T16:28:24.303Z,96855.52
2018-05-27T16:33:17.611Z,96851.98
2018-05-27T16:38:11.645Z,96850.16
2018-05-27T16:43:04.932Z,96854.03
2018-05-27T16:47:58.226Z,96851.84
2018-05-27T16:52:51.521Z,96857.73
2018-05-27T16:57:44.792Z,96847.66
2018-05-27T17:02:38.092Z,96832.93
2018-05-27T17:07:32.144Z,96827.02
2018-05-27T17:12:25.478Z,96824.28
2018-05-27T17:17:18.736Z,96832.06
2018-05-27T17:22:12.802Z,96842.53
2018-05-27T17:27:06.100Z,96841.25
2018-05-27T17:32:00.194Z,96833.81
2018-05-27T17:36:53.509Z,96838.56
2018-05-27T17:41:46.834Z,96829.16
2018-05-27T17:46:40.150Z,96830.36
2018-05-27T17:51:34.286Z,96826.09
2018-05-27T17:56:29.079Z,96830.72
2018-05-27T18:01:22.370Z,96823.27
2018-05-27T18:06:15.671Z,96820.34
2018-05-27T18:11:08.961Z,96822.99
2018-05-27T18:16:02.318Z,96828.56
2018-05-27T18:20:55.622Z,96827.50
2018-05-27T18:25:48.907Z,96832.17
2018-05-27T18:30:42.207Z,96830.92
2018-05-27T18:35:36.267Z,96835.66
2018-05-27T18:40:29.557Z,96825.63
2018-05-27T18:45:23.622Z,96833.88
2018-05-27T18:50:16.928Z,96835.24
2018-05-27T18:55:10.236Z,96844.94
2018-05-27T19:00:03.557Z,96854.03
2018-05-27T19:04:56.844Z,96858.22
2018-05-27T19:09:50.164Z,96864.67
2018-05-27T19:14:44.214Z,96874.90
2018-05-27T19:19:37.510Z,96879.59
2018-05-27T19:24:30.814Z,96892.55
2018-05-27T19:29:24.873Z,96897.39
2018-05-27T19:34:18.173Z,96896.83
2018-05-27T19:39:12.229Z,96903.42
2018-05-27T19:44:05.577Z,96907.48
2018-05-27T19:48:58.869Z,96899.82
2018-05-27T19:53:52.166Z,96905.50
2018-05-27T19:58:45.468Z,96910.11
2018-05-27T20:03:38.764Z,96912.84
2018-05-27T20:08:32.800Z,96908.03
2018-05-27T20:13:26.089Z,96915.83
2018-05-27T20:18:19.393Z,96911.49
2018-05-27T20:23:12.689Z,96920.28
2018-05-27T20:28:06.026Z,96908.91
2018-05-27T20:32:59.324Z,96912.53
2018-05-27T20:37:52.618Z,96901.63
2018-05-27T20:42:46.674Z,96916.14
2018-05-27T20:47:39.944Z,96917.59
2018-05-27T20:52:33.236Z,96911.02
2018-05-27T20:57:26.524Z,96916.97
2018-05-27T21:02:19.819Z,96921.23
2018-05-27T21:07:13.088Z,96909.84
2018-05-27T21:12:06.366Z,96919.95
2018-05-27T21:16:59.645Z,96924.52
2018-05-27T21:21:52.953Z,96925.98
2018-05-27T21:26:46.253Z,96933.72
2018-05-27T21:31:39.541Z,96933.55
2018-05-27T21:36:32.855Z,96933.86
2018-05-27T21:41:26.124Z,96924.47
2018-05-27T21:46:19.433Z,96922.77
2018-05-27T21:51:13.489Z,96925.22
2018-05-27T21:56:06.789Z,96940.77
2018-05-27T22:01:00.841Z,96942.47
2018-05-27T22:05:54.137Z,96932.34
2018-05-27T22:10:47.441Z,96929.03
2018-05-27T22:15:40.753Z,96925.56
2018-05-27T22:20:34.025Z,96917.19
2018-05-27T22:25:28.336Z,96918.80
2018-05-27T22:30:21.639Z,96916.77
2018-05-27T22:35:14.915Z,96920.91
2018-05-27T22:40:08.213Z,96917.00
2018-05-27T22:45:01.510Z,96935.61
2018-05-27T22:49:55.575Z,96935.13
2018-05-27T22:54:48.864Z,96935.36
2018-05-27T22:59:42.157Z,96925.91
2018-05-27T23:04:36.221Z,96926.48
2018-05-27T23:09:29.528Z,96925.05
2018-05-27T23:14:22.813Z,96929.49
2018-05-27T23:19:16.917Z,96932.80
2018-05-27T23:24:10.224Z,96936.37
2018-05-27T23:29:03.511Z,96931.41
2018-05-27T23:33:56.821Z,96932.88
2018-05-27T23:38:50.120Z,96931.52
2018-05-27T23:43:44.176Z,96924.88
2018-05-27T23:48:37.463Z,96917.98
2018-05-27T23:53:30.756Z,96913.22
2018-05-27T23:58:24.069Z,96904.83
